createdAt,value
2022-10-18T00:03:15.690Z,13.9
2022-10-18T00:08:20.211Z,13.9
2022-10-18T00:13:24.788Z,13.9
2022-10-18T00:18:28.296Z,13.9
2022-10-18T00:23:32.861Z,13.7
2022-10-18T00:28:37.426Z,13.8
2022-10-18T00:33:41.909Z,13.9
2022-10-18T00:38:45.478Z,13.8
2022-10-18T00:43:49.048Z,13.8
2022-10-18T00:53:58.118Z,13.7
2022-10-18T00:59:01.642Z,13.7
2022-10-18T01:04:06.140Z,13.6
2022-10-18T01:09:10.679Z,13.5
2022-10-18T01:14:15.292Z,13.5
2022-10-18T01:19:18.754Z,13.5
2022-10-18T01:24:23.310Z,13.5
2022-10-18T01:29:27.855Z,13.5
2022-10-18T01:34:31.373Z,13.5
2022-10-18T01:39:35.952Z,13.6
2022-10-18T01:44:40.462Z,13.6
2022-10-18T01:49:44.006Z,13.6
2022-10-18T01:54:48.592Z,13.6
2022-10-18T01:59:53.100Z,13.6
2022-10-18T02:04:56.645Z,13.6
2022-10-18T02:10:01.255Z,13.6
2022-10-18T02:15:05.738Z,13.9
2022-10-18T02:20:10.223Z,13.9
2022-10-18T02:25:13.777Z,14
2022-10-18T02:30:18.321Z,14
2022-10-18T02:35:22.855Z,14.1
2022-10-18T02:40:26.360Z,14.1
2022-10-18T02:45:30.913Z,14
2022-10-18T02:50:35.428Z,14.1
2022-10-18T02:55:39.007Z,14
2022-10-18T03:00:43.537Z,14.1
2022-10-18T03:05:48.172Z,14.2
2022-10-18T03:10:51.585Z,14.4
2022-10-18T03:15:56.162Z,14.3
2022-10-18T03:21:00.673Z,14.3
2022-10-18T03:26:05.196Z,14.2
2022-10-18T03:31:08.777Z,14
2022-10-18T03:36:13.268Z,14
2022-10-18T03:41:17.798Z,13.9
2022-10-18T03:46:21.386Z,14
2022-10-18T03:51:25.930Z,14.1
2022-10-18T03:56:30.418Z,14.2
2022-10-18T04:01:34.092Z,14.2
2022-10-18T04:06:38.668Z,14.3
2022-10-18T04:11:43.018Z,14.2
2022-10-18T04:16:46.605Z,14.1
2022-10-18T04:21:51.123Z,14
2022-10-18T04:26:55.638Z,14
2022-10-18T04:32:00.203Z,13.8
2022-10-18T04:37:03.770Z,13.8
2022-10-18T04:42:08.259Z,13.7
2022-10-18T04:47:12.840Z,13.7
2022-10-18T04:52:16.373Z,13.8
2022-10-18T04:57:19.916Z,13.8
2022-10-18T05:02:24.475Z,13.9
2022-10-18T05:07:28.982Z,14
2022-10-18T05:12:33.896Z,14
2022-10-18T05:17:37.071Z,14
2022-10-18T05:22:41.601Z,13.7
2022-10-18T05:27:46.156Z,13.6
2022-10-18T05:32:49.670Z,14
2022-10-18T05:37:54.206Z,13.9
2022-10-18T05:42:58.754Z,14
2022-10-18T05:48:02.296Z,14.1
2022-10-18T05:53:12.379Z,14.2
2022-10-18T05:58:11.327Z,14.2
2022-10-18T06:03:14.899Z,14.2
2022-10-18T06:08:19.483Z,14.2
2022-10-18T06:13:23.995Z,14
2022-10-18T06:18:28.501Z,14
2022-10-18T06:23:32.078Z,14.1
2022-10-18T06:28:36.750Z,14.2
2022-10-18T06:33:41.096Z,14.2
2022-10-18T06:38:44.697Z,14.2
2022-10-18T06:43:49.179Z,14.1
2022-10-18T06:48:53.761Z,14.2
2022-10-18T06:54:16.744Z,14.1
2022-10-18T06:59:01.826Z,14.2
2022-10-18T07:04:06.349Z,14.3
2022-10-18T07:09:10.049Z,14.3
2022-10-18T07:14:16.456Z,14.4
2022-10-18T07:19:18.967Z,14.3
2022-10-18T07:24:23.585Z,14
2022-10-18T07:29:27.088Z,13.8
2022-10-18T07:34:31.596Z,13.5
2022-10-18T07:39:36.171Z,13.6
2022-10-18T07:44:39.698Z,13.7
2022-10-18T07:49:44.186Z,13.8
2022-10-18T07:59:52.277Z,13.7
2022-10-18T08:04:56.840Z,13.9
2022-10-18T08:10:01.453Z,14
2022-10-18T08:15:04.896Z,14.3
2022-10-18T08:20:12.313Z,14.6
2022-10-18T08:25:13.980Z,14.6
2022-10-18T08:30:18.598Z,14.3
2022-10-18T08:35:22.024Z,14.5
2022-10-18T08:40:26.642Z,14.8
2022-10-18T08:45:41.818Z,14.4
2022-10-18T08:50:34.702Z,14.6
2022-10-18T08:55:39.222Z,14.9
2022-10-18T09:00:43.720Z,14.7
2022-10-18T09:05:47.255Z,14.5
2022-10-18T09:10:51.982Z,14.7
2022-10-18T09:15:55.367Z,14.8
2022-10-18T09:20:59.903Z,15
2022-10-18T09:26:04.446Z,15
2022-10-18T09:31:07.992Z,15.1
2022-10-18T09:36:12.488Z,15.1
2022-10-18T09:41:17.074Z,15
2022-10-18T09:46:20.574Z,14.9
2022-10-18T09:51:25.105Z,14.8
2022-10-18T09:56:29.687Z,14.7
2022-10-18T10:01:33.186Z,14.5
2022-10-18T10:06:37.721Z,15.1
2022-10-18T10:11:42.284Z,14.6
2022-10-18T10:16:46.805Z,15
2022-10-18T10:21:50.334Z,15.1
2022-10-18T10:26:54.909Z,15
2022-10-18T10:31:59.390Z,14.9
2022-10-18T10:37:02.978Z,14.6
2022-10-18T10:42:10.724Z,14.5
2022-10-18T10:47:12.006Z,14.5
2022-10-18T10:52:26.912Z,14.4
2022-10-18T10:57:20.167Z,14.5
2022-10-18T11:02:24.619Z,14.2
2022-10-18T11:07:28.245Z,14.3
2022-10-18T11:12:33.078Z,14.6
2022-10-18T11:17:37.261Z,14.7
2022-10-18T11:22:41.805Z,14.8
2022-10-18T11:27:45.358Z,14.9
2022-10-18T11:32:49.894Z,14.9
2022-10-18T11:37:54.445Z,14.9
2022-10-18T11:42:57.961Z,15.4
2022-10-18T11:48:02.544Z,15.2
2022-10-18T11:53:07.049Z,15.3
2022-10-18T11:58:10.579Z,15.3
2022-10-18T12:03:15.086Z,15.1
2022-10-18T12:08:19.647Z,15.5
2022-10-18T12:13:23.235Z,15.8
2022-10-18T12:18:27.750Z,15.9
2022-10-18T12:23:32.290Z,15.7
2022-10-18T12:28:36.869Z,15.5
2022-10-18T12:33:40.328Z,15.5
2022-10-18T12:38:44.861Z,15.4
2022-10-18T12:43:49.442Z,15.3
2022-10-18T12:48:52.953Z,15.8
2022-10-18T12:53:57.498Z,15.8
2022-10-18T12:59:02.063Z,15.7
2022-10-18T13:04:05.606Z,15.4
2022-10-18T13:09:10.090Z,16
2022-10-18T13:14:14.630Z,15.8
2022-10-18T13:19:18.199Z,15.7
2022-10-18T13:24:22.754Z,16.4
2022-10-18T13:29:26.344Z,16.9
2022-10-18T13:34:30.805Z,16.1
2022-10-18T13:39:35.362Z,15.2
2022-10-18T13:44:38.972Z,15
2022-10-18T13:49:43.444Z,15.1
2022-10-18T13:54:47.973Z,15
2022-10-18T13:59:51.558Z,14.8
2022-10-18T14:05:06.205Z,15.2
2022-10-18T14:10:03.388Z,15.4
2022-10-18T14:15:05.159Z,15.1
2022-10-18T14:20:08.650Z,15.3
2022-10-18T14:25:13.230Z,15.2
2022-10-18T14:30:17.821Z,15.1
2022-10-18T14:35:37.901Z,15.1
2022-10-18T14:40:26.958Z,14.7
2022-10-18T14:45:31.499Z,14.7
2022-10-18T14:50:35.019Z,14.9
2022-10-18T14:55:39.538Z,15
2022-10-18T15:00:46.397Z,15.1
2022-10-18T15:05:47.659Z,14.9
2022-10-18T15:10:52.141Z,14.9
2022-10-18T15:15:56.726Z,14.8
2022-10-18T15:21:01.227Z,14.8
2022-10-18T15:26:04.782Z,14.7
2022-10-18T15:31:09.369Z,14.8
2022-10-18T15:36:13.839Z,14.6
2022-10-18T15:41:18.517Z,14.4
2022-10-18T15:46:23.081Z,14.4
2022-10-18T15:51:27.570Z,14.5
2022-10-18T15:56:31.122Z,14.3
2022-10-18T16:01:35.829Z,14.3
2022-10-18T16:06:40.193Z,14
2022-10-18T16:11:43.759Z,14
2022-10-18T16:16:48.305Z,13.9
2022-10-18T16:21:52.896Z,13.8
2022-10-18T16:26:57.328Z,13.6
2022-10-18T16:32:00.914Z,13.5
2022-10-18T16:37:05.432Z,13.4
2022-10-18T16:42:09.974Z,13.3
2022-10-18T16:47:13.543Z,13.2
2022-10-18T16:52:18.030Z,13.1
2022-10-18T16:57:22.592Z,12.9
2022-10-18T17:02:26.174Z,12.9
2022-10-18T17:07:30.659Z,13
2022-10-18T17:12:35.445Z,12.8
2022-10-18T17:17:38.772Z,12.7
2022-10-18T17:22:43.295Z,12.7
2022-10-18T17:27:47.808Z,12.7
2022-10-18T17:32:53.889Z,12.6
2022-10-18T17:37:55.869Z,12.7
2022-10-18T17:42:59.483Z,12.5
2022-10-18T17:48:03.980Z,12.4
2022-10-18T17:53:08.508Z,12.5
2022-10-18T17:58:12.080Z,12.4
2022-10-18T18:03:16.643Z,12.4
2022-10-18T18:08:21.114Z,12.4
2022-10-18T18:13:25.638Z,12.4
2022-10-18T18:18:29.210Z,12.3
2022-10-18T18:23:33.758Z,12.2
2022-10-18T18:28:38.443Z,12.1
2022-10-18T18:33:41.868Z,12.1
2022-10-18T18:38:46.358Z,12.1
2022-10-18T18:43:50.908Z,12.2
2022-10-18T18:48:54.510Z,12.1
2022-10-18T18:53:59.005Z,12
2022-10-18T18:59:03.520Z,11.9
2022-10-18T19:04:07.085Z,11.9
2022-10-18T19:09:11.593Z,12
2022-10-18T19:14:16.206Z,12
2022-10-18T19:19:20.689Z,11.9
2022-10-18T19:24:24.230Z,11.9
2022-10-18T19:29:28.764Z,11.8
2022-10-18T19:34:33.329Z,11.7
2022-10-18T19:39:36.841Z,11.7
2022-10-18T19:44:41.387Z,11.7
2022-10-18T19:49:45.945Z,11.7
2022-10-18T19:54:49.477Z,11.8
2022-10-18T19:59:56.062Z,11.6
2022-10-18T20:04:58.581Z,11.6
2022-10-18T20:10:02.118Z,11.7
2022-10-18T20:15:06.600Z,11.7
2022-10-18T20:20:11.156Z,11.8
2022-10-18T20:25:15.668Z,11.7
2022-10-18T20:30:19.234Z,11.6
2022-10-18T20:35:23.799Z,11.6
2022-10-18T20:40:28.342Z,11.4
2022-10-18T20:45:31.870Z,11.3
2022-10-18T20:50:36.421Z,11.2
2022-10-18T20:55:40.905Z,11.1
2022-10-18T21:00:44.475Z,11.1
2022-10-18T21:05:49.051Z,10.9
2022-10-18T21:10:53.558Z,10.8
2022-10-18T21:15:57.117Z,10.8
2022-10-18T21:21:01.731Z,10.7
2022-10-18T21:26:06.157Z,10.7
2022-10-18T21:31:10.711Z,10.7
2022-10-18T21:36:14.280Z,10.5
2022-10-18T21:41:18.776Z,10.4
2022-10-18T21:46:23.333Z,10.3
2022-10-18T21:51:26.915Z,10.3
2022-10-18T21:56:30.416Z,10.3
2022-10-18T22:01:34.966Z,10.3
2022-10-18T22:06:39.503Z,10.3
2022-10-18T22:11:44.057Z,10.4
2022-10-18T22:16:47.588Z,10.4
2022-10-18T22:21:52.168Z,10.4
2022-10-18T22:26:56.644Z,10.3
2022-10-18T22:32:00.187Z,9.9
2022-10-18T22:37:04.730Z,9.5
2022-10-18T22:42:09.260Z,9.3
2022-10-18T22:47:12.822Z,9.2
2022-10-18T22:52:17.395Z,9.1
2022-10-18T22:57:21.898Z,9.1
2022-10-18T23:02:25.439Z,9
2022-10-18T23:07:30.063Z,9
2022-10-18T23:12:34.798Z,9
2022-10-18T23:17:39.057Z,9
2022-10-18T23:22:42.610Z,9.1
2022-10-18T23:27:47.097Z,9.3
2022-10-18T23:32:51.661Z,9.3
2022-10-18T23:37:55.220Z,9.2
2022-10-18T23:42:59.793Z,9.2
2022-10-18T23:48:04.277Z,9.4
2022-10-18T23:53:07.840Z,9.3
2022-10-18T23:58:12.360Z,9.1
